Time;durP1;ratioP1;P1;durP2;ratioP2;P2;SDS_P1;SDS_P2;PMS_P1;PMS_P2;Temp;Humidity;BMP_temperature;BMP_pressure;BME280_temperature;BME280_humidity;BME280_pressure;Samples;Min_cycle;Max_cycle;Signal;HPM_P1;HPM_P2
2021/09/20 00:01:37;;;;;;;2.80;1.73;;;;;;;10.09;91.67;101329.06;5075643;28;20542;-69
2021/09/20 00:04:02;;;;;;;5.23;1.90;;;;;;;10.08;91.14;101327.31;5075922;28;20648;-69
2021/09/20 00:06:27;;;;;;;3.60;1.80;;;;;;;10.02;93.07;101327.56;5057529;28;20246;-68
2021/09/20 00:08:53;;;;;;;4.90;1.90;;;;;;;9.98;92.56;101326.81;5075612;28;20254;-69
2021/09/20 00:11:18;;;;;;;6.30;2.17;;;;;;;10.00;93.10;101338.28;5075524;28;20171;-68
2021/09/20 00:13:43;;;;;;;4.80;2.00;;;;;;;10.02;93.69;101338.22;5075461;28;20232;-69
2021/09/20 00:16:09;;;;;;;2.70;2.07;;;;;;;10.02;93.78;101343.56;5081218;28;20206;-69
2021/09/20 00:18:34;;;;;;;3.10;2.07;;;;;;;9.96;94.35;101346.50;5081402;28;20636;-69
2021/09/20 00:21:00;;;;;;;2.37;1.97;;;;;;;9.97;94.98;101353.56;5075574;28;20195;-69
2021/09/20 00:23:25;;;;;;;6.53;2.60;;;;;;;9.93;95.08;101346.63;5075318;28;20171;-68
2021/09/20 00:25:50;;;;;;;2.83;1.97;;;;;;;10.00;94.81;101351.63;5076155;28;20194;-68
2021/09/20 00:28:16;;;;;;;3.50;2.20;;;;;;;10.03;94.49;101353.28;5075511;28;20582;-68
2021/09/20 00:30:41;;;;;;;5.17;2.23;;;;;;;9.97;95.10;101351.75;5075513;28;20225;-68
2021/09/20 00:33:08;;;;;;;3.53;2.30;;;;;;;9.91;95.56;101361.81;5057569;28;20182;-68
2021/09/20 00:35:33;;;;;;;3.07;2.20;;;;;;;9.85;95.89;101359.41;5075180;28;20194;-69
2021/09/20 00:37:58;;;;;;;3.10;2.30;;;;;;;9.88;96.64;101364.63;5075055;28;20249;-68
2021/09/20 00:40:24;;;;;;;7.53;2.40;;;;;;;9.89;97.04;101369.88;5075237;28;20191;-68
2021/09/20 00:42:49;;;;;;;3.00;1.90;;;;;;;9.84;96.96;101366.53;5074906;28;20575;-68
2021/09/20 00:45:15;;;;;;;3.53;2.60;;;;;;;9.89;96.79;101372.56;5057524;28;20163;-69
2021/09/20 00:47:40;;;;;;;3.17;2.10;;;;;;;9.96;96.89;101365.16;5056914;28;20675;-68
2021/09/20 00:50:06;;;;;;;3.43;2.50;;;;;;;10.13;95.53;101360.00;5056353;28;20289;-68
2021/09/20 00:52:31;;;;;;;3.17;2.50;;;;;;;9.96;96.65;101367.81;5074388;28;20210;-69
2021/09/20 00:54:56;;;;;;;4.70;2.70;;;;;;;9.94;96.51;101359.88;5074584;28;20205;-69
2021/09/20 00:57:22;;;;;;;4.03;2.57;;;;;;;9.89;97.30;101364.56;5074648;28;20573;-68
2021/09/20 00:59:47;;;;;;;5.10;2.60;;;;;;;9.87;98.22;101366.41;5074642;28;20248;-68
2021/09/20 01:02:12;;;;;;;3.43;2.33;;;;;;;9.85;97.49;101367.41;5056645;28;20268;-68
2021/09/20 01:04:38;;;;;;;2.47;2.20;;;;;;;9.81;98.71;101373.81;5074732;28;20202;-68
2021/09/20 01:07:03;;;;;;;7.00;2.40;;;;;;;9.85;98.05;101364.75;5074849;28;20167;-69
2021/09/20 01:09:29;;;;;;;2.80;2.30;;;;;;;9.79;98.35;101365.88;5074840;28;20204;-68
2021/09/20 01:11:54;;;;;;;4.17;2.47;;;;;;;9.86;97.19;101361.16;5074573;28;20198;-69
2021/09/20 01:14:20;;;;;;;5.90;2.33;;;;;;;9.93;95.52;101344.81;5074246;28;20221;-69
2021/09/20 01:16:45;;;;;;;4.43;2.53;;;;;;;9.92;95.65;101351.09;5056360;28;20281;-69
2021/09/20 01:19:10;;;;;;;5.03;2.40;;;;;;;9.98;96.01;101357.97;5074592;28;20278;-68
2021/09/20 01:21:36;;;;;;;2.73;2.20;;;;;;;10.00;96.29;101361.44;5056164;28;20171;-67
2021/09/20 01:24:01;;;;;;;4.13;2.30;;;;;;;10.00;95.53;101356.09;5073942;28;20170;-68
2021/09/20 01:26:27;;;;;;;5.77;2.70;;;;;;;10.00;95.12;101356.09;5074210;28;20183;-68
2021/09/20 01:28:52;;;;;;;3.57;2.07;;;;;;;9.99;95.55;101357.03;5073861;28;20167;-68
2021/09/20 01:31:18;;;;;;;4.03;2.40;;;;;;;10.02;97.59;101368.44;5074376;28;20175;-69
2021/09/20 01:33:43;;;;;;;4.03;2.33;;;;;;;10.00;99.29;101383.63;5073860;28;20179;-68
2021/09/20 01:36:09;;;;;;;4.50;2.20;;;;;;;9.98;100.00;101382.81;5056275;28;20742;-69
2021/09/20 01:38:34;;;;;;;3.93;2.70;;;;;;;9.95;100.00;101372.28;5074630;28;20233;-68
2021/09/20 01:41:00;;;;;;;3.33;2.27;;;;;;;9.95;100.00;101377.63;5073778;28;20213;-69
2021/09/20 01:43:25;;;;;;;3.73;2.40;;;;;;;9.95;100.00;101377.63;5073726;28;20174;-69
2021/09/20 01:45:50;;;;;;;4.23;2.50;;;;;;;9.93;100.00;101373.28;5056118;28;20619;-69
2021/09/20 01:48:17;;;;;;;7.13;2.50;;;;;;;9.93;100.00;101367.94;5074091;28;20177;-69
2021/09/20 01:50:43;;;;;;;3.53;2.33;;;;;;;9.90;100.00;101368.09;5073357;28;20237;-69
2021/09/20 01:53:08;;;;;;;7.23;2.53;;;;;;;9.93;98.36;101358.16;5073682;28;20225;-69
2021/09/20 01:55:33;;;;;;;3.87;2.50;;;;;;;9.97;97.22;101350.88;5055617;28;20191;-69
2021/09/20 01:57:59;;;;;;;3.73;2.20;;;;;;;10.00;96.34;101345.44;5073381;28;20175;-69
2021/09/20 02:00:24;;;;;;;6.13;2.50;;;;;;;10.01;96.48;101347.16;5056127;28;20194;-68
2021/09/20 02:02:49;;;;;;;4.53;2.53;;;;;;;10.01;97.08;101347.16;5072821;28;20592;-68
2021/09/20 02:05:15;;;;;;;2.87;2.20;;;;;;;10.03;96.68;101347.97;5073278;28;20190;-68
2021/09/20 02:07:41;;;;;;;2.97;2.30;;;;;;;10.00;97.23;101348.97;5073716;28;20189;-68
2021/09/20 02:10:09;;;;;;;6.47;2.60;;;;;;;9.97;97.33;101351.75;5073126;28;20225;-68
2021/09/20 02:12:35;;;;;;;5.73;2.50;;;;;;;9.94;97.47;101354.56;5073160;28;20166;-68
2021/09/20 02:15:01;;;;;;;4.03;2.10;;;;;;;9.86;97.25;101347.81;5072966;28;20651;-68
2021/09/20 02:17:26;;;;;;;4.47;2.50;;;;;;;9.82;98.30;101348.88;5073018;28;20175;-68
2021/09/20 02:19:52;;;;;;;3.87;2.53;;;;;;;9.77;98.62;101350.88;5055129;28;20198;-68
2021/09/20 02:22:17;;;;;;;3.00;2.50;;;;;;;9.77;98.56;101350.88;5073259;28;20167;-68
2021/09/20 02:24:43;;;;;;;3.80;2.37;;;;;;;9.80;98.63;101358.75;5073276;28;20171;-69
2021/09/20 02:27:08;;;;;;;3.93;2.20;;;;;;;9.82;99.47;101360.41;5073079;28;20196;-68
2021/09/20 02:29:34;;;;;;;2.63;2.40;;;;;;;9.81;100.00;101369.34;5055559;28;20195;-68
2021/09/20 02:31:59;;;;;;;2.87;2.30;;;;;;;9.80;100.00;101372.06;5073163;28;20174;-68
2021/09/20 02:34:24;;;;;;;3.37;2.70;;;;;;;9.84;100.00;101379.00;5073137;28;20259;-68
2021/09/20 02:36:50;;;;;;;3.33;2.60;;;;;;;9.83;100.00;101369.28;5073250;28;20199;-68
2021/09/20 02:39:15;;;;;;;6.37;2.80;;;;;;;9.85;100.00;101384.28;5072859;28;20186;-68
2021/09/20 02:41:40;;;;;;;5.30;2.43;;;;;;;9.86;100.00;101378.00;5072901;28;20660;-69
2021/09/20 02:44:07;;;;;;;3.23;2.60;;;;;;;9.87;100.00;101374.41;5073121;28;20178;-68
2021/09/20 02:46:32;;;;;;;6.13;2.57;;;;;;;9.86;100.00;101366.47;5072775;28;20163;-68
2021/09/20 02:48:57;;;;;;;7.90;2.70;;;;;;;9.88;99.51;101357.47;5072973;28;20181;-68
2021/09/20 02:51:23;;;;;;;3.40;2.47;;;;;;;9.91;98.50;101349.34;5077977;23;20230;-67
2021/09/20 02:53:48;;;;;;;3.07;2.43;;;;;;;9.94;98.50;101351.88;5073652;28;20232;-67
2021/09/20 02:56:13;;;;;;;3.43;2.30;;;;;;;9.93;99.34;101363.50;5075898;28;20191;-67
2021/09/20 02:58:39;;;;;;;6.37;2.50;;;;;;;9.95;99.61;101366.94;5039035;28;20190;-67
2021/09/20 03:01:04;;;;;;;3.87;2.60;;;;;;;9.91;100.00;101376.00;5073063;28;20230;-67
2021/09/20 03:03:29;;;;;;;3.37;2.30;;;;;;;9.87;100.00;101378.88;5055441;28;20612;-67
2021/09/20 03:05:55;;;;;;;3.53;2.30;;;;;;;9.85;100.00;101386.06;5072704;28;20581;-67
2021/09/20 03:08:20;;;;;;;3.80;2.50;;;;;;;9.86;100.00;101385.13;5073070;28;20206;-67
2021/09/20 03:10:45;;;;;;;6.20;3.20;;;;;;;9.91;99.78;101360.03;5073220;28;20195;-67
2021/09/20 03:13:11;;;;;;;4.27;2.93;;;;;;;9.95;99.74;101360.75;5073269;28;20240;-67
2021/09/20 03:15:36;;;;;;;5.37;2.57;;;;;;;9.96;99.17;101354.50;5076531;28;20263;-67
2021/09/20 03:18:01;;;;;;;5.27;2.70;;;;;;;9.95;97.97;101352.75;5076894;28;20649;-67
2021/09/20 03:20:27;;;;;;;5.43;2.30;;;;;;;9.96;98.68;101360.69;5076784;28;20610;-66
2021/09/20 03:22:52;;;;;;;6.03;2.43;;;;;;;9.95;98.45;101360.75;5076592;28;20596;-66
2021/09/20 03:25:18;;;;;;;3.70;2.47;;;;;;;9.91;98.26;101353.81;5076687;28;20186;-67
2021/09/20 03:27:44;;;;;;;4.50;2.60;;;;;;;9.91;98.30;101354.69;5076301;28;20183;-66
2021/09/20 03:30:10;;;;;;;3.30;2.30;;;;;;;9.94;97.97;101354.56;5076242;28;20285;-66
2021/09/20 03:32:36;;;;;;;3.57;2.70;;;;;;;9.97;97.28;101354.44;5076275;28;20209;-67
2021/09/20 03:35:02;;;;;;;4.37;2.70;;;;;;;9.99;97.35;101351.69;5076179;28;20202;-67
2021/09/20 03:37:27;;;;;;;3.27;2.30;;;;;;;9.93;97.16;101351.94;5076402;28;20171;-66
2021/09/20 03:39:53;;;;;;;5.60;2.53;;;;;;;9.87;97.95;101350.41;5058239;28;20194;-67
2021/09/20 03:42:18;;;;;;;3.47;2.57;;;;;;;9.87;98.00;101352.22;5076036;28;20175;-66
2021/09/20 03:44:43;;;;;;;3.30;2.53;;;;;;;9.84;97.94;101352.34;5076267;28;20556;-68
2021/09/20 03:47:09;;;;;;;5.27;2.87;;;;;;;9.79;99.10;101357.88;5076379;28;20628;-68
2021/09/20 03:49:34;;;;;;;3.37;2.47;;;;;;;9.80;99.86;101361.41;5075833;28;20663;-68
2021/09/20 03:51:59;;;;;;;5.57;3.20;;;;;;;9.76;98.86;101357.13;5076399;28;20164;-68
2021/09/20 03:54:25;;;;;;;3.90;2.83;;;;;;;9.83;97.40;101345.28;5076297;28;20190;-66
2021/09/20 03:56:50;;;;;;;4.73;2.57;;;;;;;9.79;98.45;101349.00;5076430;28;20338;-66
2021/09/20 03:59:15;;;;;;;7.60;3.03;;;;;;;9.84;97.49;101357.69;5076383;28;20178;-66
2021/09/20 04:01:41;;;;;;;6.80;2.87;;;;;;;9.83;97.27;101347.94;5076670;28;20195;-68
2021/09/20 04:04:06;;;;;;;3.60;2.50;;;;;;;9.84;96.38;101339.00;5076907;28;20179;-68
2021/09/20 04:06:31;;;;;;;3.37;2.50;;;;;;;9.83;96.26;101346.16;5079949;28;20583;-67
2021/09/20 04:09:00;;;;;;;6.73;2.40;;;;;;;9.83;96.90;101350.63;5058505;28;20175;-67
2021/09/20 04:11:26;;;;;;;4.47;2.63;;;;;;;9.91;95.74;101333.34;5075809;28;20190;-67
2021/09/20 04:13:51;;;;;;;4.90;2.30;;;;;;;9.88;95.43;101338.81;5075808;28;20190;-67
2021/09/20 04:16:16;;;;;;;4.07;2.77;;;;;;;9.80;96.15;101338.28;5075887;28;20203;-67
2021/09/20 04:18:42;;;;;;;5.90;2.23;;;;;;;9.82;95.32;101348.88;5058346;28;20540;-67
2021/09/20 04:21:07;;;;;;;2.37;2.17;;;;;;;9.83;95.63;101347.94;5077127;28;20552;-69
2021/09/20 04:23:32;;;;;;;6.00;2.67;;;;;;;9.86;95.55;101339.81;5076210;28;20175;-67
2021/09/20 04:25:58;;;;;;;7.30;2.30;;;;;;;9.81;95.18;101339.16;5075152;28;20216;-69
2021/09/20 04:28:23;;;;;;;3.80;2.57;;;;;;;9.81;95.66;101341.81;5075943;28;20175;-67
2021/09/20 04:30:48;;;;;;;4.37;2.30;;;;;;;9.79;95.18;101338.34;5075470;28;20187;-67
2021/09/20 04:33:15;;;;;;;5.30;2.40;;;;;;;9.79;95.60;101346.34;5041890;28;20572;-67
2021/09/20 04:35:41;;;;;;;5.33;2.30;;;;;;;9.74;95.47;101356.34;5076785;28;20213;-67
2021/09/20 04:38:07;;;;;;;9.57;2.67;;;;;;;9.81;95.19;101352.47;5077044;28;20644;-68
2021/09/20 04:40:34;;;;;;;2.93;2.20;;;;;;;9.77;95.20;101343.75;5075898;28;20195;-68
2021/09/20 04:43:00;;;;;;;3.67;2.60;;;;;;;9.75;94.48;101342.06;5057418;28;20167;-68
2021/09/20 04:45:25;;;;;;;4.80;2.23;;;;;;;9.78;93.84;101332.16;5075767;28;20228;-68
2021/09/20 04:47:50;;;;;;;4.13;2.70;;;;;;;9.80;93.91;101334.75;5057568;28;20179;-69
2021/09/20 04:50:16;;;;;;;5.07;2.50;;;;;;;9.80;93.29;101334.75;5075514;28;20210;-69
2021/09/20 04:52:41;;;;;;;4.07;2.27;;;;;;;9.91;92.33;101319.16;5075724;28;20198;-68
2021/09/20 04:55:07;;;;;;;3.53;2.37;;;;;;;9.82;92.24;101325.75;5075596;28;20192;-67
2021/09/20 04:57:32;;;;;;;4.23;2.00;;;;;;;9.88;92.13;101329.94;5075478;28;20183;-65
2021/09/20 04:59:57;;;;;;;4.57;2.37;;;;;;;9.99;91.00;101325.03;5059763;28;20203;-62
2021/09/20 05:02:23;;;;;;;3.37;2.40;;;;;;;9.96;90.87;101320.69;5079182;28;20179;-63
2021/09/20 05:04:48;;;;;;;3.93;2.47;;;;;;;10.02;91.14;101322.22;5076768;28;20177;-62
2021/09/20 05:07:13;;;;;;;3.27;2.73;;;;;;;10.21;89.60;101320.53;5075155;28;20171;-64
2021/09/20 05:09:39;;;;;;;4.57;2.30;;;;;;;10.19;89.43;101321.50;5074917;28;20198;-62
2021/09/20 05:12:04;;;;;;;3.13;2.50;;;;;;;10.23;89.46;101323.16;5074513;28;20214;-63
2021/09/20 05:14:29;;;;;;;3.97;2.70;;;;;;;10.26;88.56;101318.53;5074693;28;20191;-63
2021/09/20 05:16:58;;;;;;;5.97;2.43;;;;;;;10.25;89.11;101323.94;5074503;28;20202;-63
2021/09/20 05:19:23;;;;;;;5.30;2.63;;;;;;;10.24;88.94;101322.22;5074832;28;20175;-62
2021/09/20 05:21:48;;;;;;;7.53;2.53;;;;;;;10.25;89.45;101322.13;5074724;28;20641;-63
2021/09/20 05:24:14;;;;;;;5.53;2.97;;;;;;;10.28;88.80;101322.00;5074600;28;20186;-62
2021/09/20 05:26:39;;;;;;;5.67;2.40;;;;;;;10.28;89.25;101322.00;5056596;28;20624;-63
2021/09/20 05:29:04;;;;;;;4.30;2.60;;;;;;;10.29;88.83;101320.22;5074682;28;20170;-68
2021/09/20 05:31:30;;;;;;;4.43;2.40;;;;;;;10.34;88.61;101332.41;5074173;28;20202;-68
2021/09/20 05:33:55;;;;;;;5.53;2.13;;;;;;;10.38;88.38;101332.25;5074379;28;20182;-68
2021/09/20 05:36:21;;;;;;;2.97;2.17;;;;;;;10.46;88.41;101338.16;5076276;28;20692;-68
2021/09/20 05:38:46;;;;;;;4.43;2.50;;;;;;;10.43;88.38;101346.31;5075497;28;20221;-68
2021/09/20 05:41:11;;;;;;;3.27;2.27;;;;;;;10.37;89.31;101351.88;5074066;28;20209;-68
2021/09/20 05:43:36;;;;;;;6.00;2.30;;;;;;;10.31;89.48;101337.00;5074553;28;20182;-68
2021/09/20 05:46:02;;;;;;;5.93;2.07;;;;;;;10.23;89.68;101356.03;5074126;28;20181;-68
2021/09/20 05:48:27;;;;;;;4.07;2.10;;;;;;;10.25;89.59;101343.47;5073591;28;20179;-68
2021/09/20 05:50:54;;;;;;;4.27;2.30;;;;;;;10.28;89.51;101354.03;5073459;28;20575;-68
2021/09/20 05:53:19;;;;;;;4.93;2.50;;;;;;;10.33;89.61;101352.00;5073604;28;20175;-69
2021/09/20 05:55:45;;;;;;;7.53;2.67;;;;;;;10.33;89.59;101349.34;5074290;28;20203;-69
2021/09/20 05:58:10;;;;;;;4.03;2.27;;;;;;;10.33;90.01;101362.69;5074277;28;20560;-69
2021/09/20 06:00:35;;;;;;;6.57;2.73;;;;;;;10.27;90.17;101362.97;5073695;28;20207;-69
2021/09/20 06:03:01;;;;;;;8.90;2.60;;;;;;;10.42;90.01;101368.59;5073809;28;20652;-69
2021/09/20 06:05:26;;;;;;;4.37;2.47;;;;;;;10.55;89.47;101375.09;5073835;28;20199;-68
2021/09/20 06:07:52;;;;;;;7.03;2.30;;;;;;;10.45;89.45;101366.66;5075037;28;20179;-68
2021/09/20 06:10:18;;;;;;;7.43;2.50;;;;;;;10.52;89.84;101380.59;5074975;28;20199;-67
2021/09/20 06:12:45;;;;;;;5.67;2.20;;;;;;;10.49;90.49;101384.25;5055539;28;20174;-68
2021/09/20 06:15:11;;;;;;;3.57;2.40;;;;;;;10.57;89.93;101392.78;5073479;28;20179;-68
2021/09/20 06:17:36;;;;;;;5.13;2.63;;;;;;;10.50;90.20;101388.66;5073515;28;20596;-67
2021/09/20 06:20:03;;;;;;;5.70;2.53;;;;;;;10.53;90.97;101391.19;5038960;28;20202;-67
2021/09/20 06:22:29;;;;;;;4.27;2.30;;;;;;;10.61;90.93;101399.72;5073520;28;20178;-67
2021/09/20 06:24:56;;;;;;;2.73;2.30;;;;;;;10.53;91.57;101407.19;5074513;28;20181;-67
2021/09/20 06:27:21;;;;;;;4.63;2.67;;;;;;;10.52;91.69;101407.28;5075338;28;20171;-67
2021/09/20 06:29:46;;;;;;;3.33;2.20;;;;;;;10.62;91.53;101414.81;5075296;28;20198;-67
2021/09/20 06:32:12;;;;;;;4.80;2.67;;;;;;;10.54;92.78;101419.63;5075899;28;20190;-67
2021/09/20 06:34:37;;;;;;;5.00;2.90;;;;;;;10.51;93.45;101430.44;5075551;28;20645;-67
2021/09/20 06:37:02;;;;;;;6.20;2.23;;;;;;;10.53;93.48;101427.69;5074919;28;20198;-67
2021/09/20 06:39:28;;;;;;;6.03;2.50;;;;;;;10.55;92.92;101429.34;5074698;28;20178;-69
2021/09/20 06:41:53;;;;;;;4.17;2.70;;;;;;;10.72;92.38;101441.94;5074767;28;20185;-68
2021/09/20 06:44:19;;;;;;;4.43;2.70;;;;;;;10.75;92.76;101428.47;5074595;28;20167;-67
2021/09/20 06:46:45;;;;;;;5.40;2.70;;;;;;;10.71;93.25;101442.88;5057229;28;20175;-67
2021/09/20 06:49:10;;;;;;;6.90;2.60;;;;;;;10.68;93.83;101436.81;5074457;28;20175;-67
2021/09/20 06:51:36;;;;;;;8.83;2.87;;;;;;;10.65;93.78;101435.16;5074653;28;20282;-67
2021/09/20 06:54:01;;;;;;;5.73;2.87;;;;;;;10.74;93.19;101436.53;5075069;28;20190;-68
2021/09/20 06:56:26;;;;;;;4.20;2.40;;;;;;;10.84;92.91;101432.56;5074317;28;20195;-68
2021/09/20 06:58:51;;;;;;;4.73;2.60;;;;;;;10.90;91.92;101416.25;5074782;28;20186;-68
2021/09/20 07:01:17;;;;;;;5.77;2.70;;;;;;;11.01;91.31;101413.97;5074761;28;20201;-67
2021/09/20 07:03:42;;;;;;;7.03;2.77;;;;;;;11.06;91.78;101432.44;5073131;28;20185;-68
2021/09/20 07:06:08;;;;;;;5.47;2.90;;;;;;;11.08;91.09;101427.91;5055066;28;20173;-68
2021/09/20 07:08:34;;;;;;;10.33;2.90;;;;;;;11.09;92.26;101434.97;5055046;28;20648;-68
2021/09/20 07:10:59;;;;;;;5.40;2.73;;;;;;;11.29;90.73;101424.25;5073431;28;20203;-69
2021/09/20 07:13:25;;;;;;;7.03;3.40;;;;;;;11.22;90.90;101421.00;5081935;28;20200;-67
2021/09/20 07:15:50;;;;;;;5.33;3.10;;;;;;;11.25;90.82;101428.88;5074331;28;20202;-67
2021/09/20 07:18:15;;;;;;;5.70;2.90;;;;;;;11.16;91.54;101434.66;5073584;28;20679;-68
2021/09/20 07:20:41;;;;;;;4.83;2.60;;;;;;;11.11;93.52;101450.00;5073157;28;20599;-68
2021/09/20 07:23:07;;;;;;;6.37;2.70;;;;;;;11.14;93.73;101462.34;5072930;28;20231;-68
2021/09/20 07:25:32;;;;;;;5.87;2.70;;;;;;;11.14;93.36;101457.88;5054977;28;20679;-68
2021/09/20 07:27:57;;;;;;;8.47;2.77;;;;;;;11.22;94.74;101465.56;5072781;28;20564;-67
2021/09/20 07:30:23;;;;;;;8.10;2.90;;;;;;;11.20;94.45;101462.09;5054843;28;20201;-68
2021/09/20 07:32:49;;;;;;;5.13;2.60;;;;;;;11.30;93.68;101458.06;5055261;28;20171;-69
2021/09/20 07:35:16;;;;;;;6.17;2.40;;;;;;;11.37;93.24;101462.16;5055516;28;20202;-67
2021/09/20 07:37:45;;;;;;;3.93;2.80;;;;;;;11.50;91.92;101465.13;5072745;28;20186;-67
2021/09/20 07:40:12;;;;;;;3.70;2.77;;;;;;;11.44;92.69;101460.94;5073113;28;20657;-68
2021/09/20 07:42:37;;;;;;;4.50;2.70;;;;;;;11.42;93.67;101478.84;5054805;28;20201;-69
2021/09/20 07:45:03;;;;;;;7.00;2.93;;;;;;;11.46;93.59;101480.44;5072824;28;20171;-68
2021/09/20 07:47:28;;;;;;;6.43;2.83;;;;;;;11.46;93.41;101480.44;5054721;28;20652;-68
2021/09/20 07:49:53;;;;;;;11.17;3.13;;;;;;;11.46;93.04;101472.44;5072898;28;20587;-68
2021/09/20 07:52:19;;;;;;;6.30;2.70;;;;;;;11.67;90.72;101451.00;5072937;28;20171;-68
2021/09/20 07:54:44;;;;;;;4.10;2.87;;;;;;;11.53;90.63;101454.31;5072727;28;20186;-69
2021/09/20 07:57:10;;;;;;;4.23;2.60;;;;;;;11.63;92.19;101485.03;5073034;28;20684;-68
2021/09/20 07:59:35;;;;;;;5.47;2.60;;;;;;;11.85;92.10;101487.56;5055990;28;20258;-69
2021/09/20 08:02:00;;;;;;;4.10;3.00;;;;;;;12.06;91.49;101494.56;5078489;28;20694;-70
2021/09/20 08:04:26;;;;;;;4.33;2.70;;;;;;;12.26;89.73;101482.88;5078262;28;20206;-69
2021/09/20 08:06:51;;;;;;;4.83;2.70;;;;;;;12.40;87.63;101453.63;5058186;28;20286;-67
2021/09/20 08:09:16;;;;;;;4.17;2.40;;;;;;;12.19;88.83;101471.63;5076138;28;20182;-67
2021/09/20 08:11:41;;;;;;;5.33;2.40;;;;;;;12.27;89.43;101479.28;5058397;28;20611;-69
2021/09/20 08:14:07;;;;;;;6.77;2.80;;;;;;;12.20;88.95;101462.63;5058837;28;20601;-68
2021/09/20 08:16:32;;;;;;;3.77;2.23;;;;;;;12.47;88.52;101471.09;5076245;28;20210;-69
2021/09/20 08:18:57;;;;;;;4.10;2.60;;;;;;;12.49;89.38;101476.38;5076181;28;20609;-68
2021/09/20 08:21:23;;;;;;;2.90;1.90;;;;;;;12.58;88.98;101477.72;5075811;28;20202;-68
2021/09/20 08:23:48;;;;;;;12.87;2.83;;;;;;;12.37;88.43;101463.63;5075774;28;20228;-69
2021/09/20 08:26:13;;;;;;;5.70;2.40;;;;;;;12.24;90.58;101497.28;5057918;28;20221;-68
2021/09/20 08:28:39;;;;;;;5.33;2.57;;;;;;;12.43;89.53;101490.09;5076409;28;20170;-68
2021/09/20 08:31:04;;;;;;;6.20;2.60;;;;;;;12.50;88.88;101470.94;5057846;28;20537;-68
2021/09/20 08:33:29;;;;;;;4.17;2.27;;;;;;;12.49;89.19;101484.41;5075732;28;20175;-67
2021/09/20 08:35:55;;;;;;;6.30;2.37;;;;;;;12.51;88.82;101487.88;5075867;28;20237;-69
2021/09/20 08:38:21;;;;;;;6.10;2.30;;;;;;;12.42;88.61;101481.19;5075883;28;20214;-69
2021/09/20 08:40:46;;;;;;;6.23;2.73;;;;;;;12.51;88.80;101483.38;5075363;28;20209;-69
2021/09/20 08:43:12;;;;;;;2.80;1.90;;;;;;;12.63;87.91;101483.69;5075699;28;20686;-68
2021/09/20 08:45:37;;;;;;;4.83;2.20;;;;;;;12.74;87.48;101478.69;5075394;28;20179;-68
2021/09/20 08:48:03;;;;;;;6.43;2.30;;;;;;;12.72;87.37;101485.94;5075211;28;20174;-68
2021/09/20 08:50:32;;;;;;;2.97;2.23;;;;;;;12.70;87.61;101483.34;5085865;22;20284;-71
2021/09/20 08:52:58;;;;;;;5.93;1.97;;;;;;;12.69;86.87;101470.03;5054672;28;20175;-70
2021/09/20 08:55:24;;;;;;;5.17;2.20;;;;;;;12.76;86.70;101476.78;5053632;28;20683;-70
2021/09/20 08:57:49;;;;;;;3.53;2.10;;;;;;;12.69;87.04;101476.25;5054931;28;20179;-70
2021/09/20 09:00:15;;;;;;;4.67;2.33;;;;;;;12.73;87.06;101483.19;5066393;28;20196;-70
2021/09/20 09:02:41;;;;;;;3.53;1.80;;;;;;;12.81;86.84;101485.44;5034894;28;20172;-70
2021/09/20 09:05:24;;;;;;;5.13;1.90;;;;;;;12.92;86.51;101484.88;5034722;28;20218;-70
2021/09/20 09:07:53;;;;;;;5.20;2.07;;;;;;;12.87;86.98;101484.25;5033788;28;20639;-70
2021/09/20 09:10:18;;;;;;;4.23;2.33;;;;;;;12.86;86.63;101482.53;5033751;28;20242;-70
2021/09/20 09:12:43;;;;;;;2.33;2.00;;;;;;;12.93;86.57;101489.28;5033976;28;20181;-70
2021/09/20 09:15:11;;;;;;;2.50;1.73;;;;;;;12.96;85.22;101468.56;5034405;28;20203;-70
2021/09/20 09:17:40;;;;;;;4.00;2.63;;;;;;;12.95;85.49;101472.19;5034677;28;20204;-70
2021/09/20 09:20:21;;;;;;;5.60;2.50;;;;;;;12.77;86.18;101487.44;5032994;28;20688;-70
2021/09/20 09:23:00;;;;;;;4.47;2.33;;;;;;;12.82;87.17;101498.75;5034534;28;20243;-70
2021/09/20 09:25:43;;;;;;;3.90;2.33;;;;;;;12.82;87.67;101504.13;5033495;28;20175;-70
2021/09/20 09:28:13;;;;;;;5.80;2.60;;;;;;;12.81;87.04;101507.75;5033029;28;20598;-70
2021/09/20 09:30:42;;;;;;;5.77;2.80;;;;;;;12.78;87.30;101502.56;5034188;28;20238;-70
2021/09/20 09:33:13;;;;;;;5.93;2.87;;;;;;;12.64;88.93;101522.97;5033382;28;20184;-70
2021/09/20 09:35:43;;;;;;;8.00;2.93;;;;;;;12.75;88.84;101531.31;5034587;28;20200;-70
2021/09/20 09:38:09;;;;;;;4.40;2.80;;;;;;;12.78;87.97;101507.03;5033195;28;20168;-70
2021/09/20 09:40:58;;;;;;;4.00;2.63;;;;;;;12.80;87.85;101516.72;5033430;28;20192;-70
2021/09/20 09:43:28;;;;;;;5.40;2.57;;;;;;;12.84;88.63;101520.97;5033521;28;20169;-70
2021/09/20 09:45:56;;;;;;;5.50;2.60;;;;;;;12.86;88.66;101525.41;5033947;28;20287;-70
2021/09/20 09:48:24;;;;;;;4.77;3.23;;;;;;;12.86;89.67;101539.66;5033101;28;20257;-70
2021/09/20 09:50:52;;;;;;;7.47;3.27;;;;;;;12.76;90.51;101544.63;5033659;28;20207;-70
2021/09/20 09:53:26;;;;;;;5.43;2.67;;;;;;;12.77;89.29;101535.63;5032807;28;20176;-70
2021/09/20 09:55:52;;;;;;;4.43;2.60;;;;;;;12.77;88.83;101524.94;5032390;28;20715;-69
2021/09/20 09:58:19;;;;;;;3.50;2.47;;;;;;;12.77;89.56;101548.16;5034025;28;20177;-70
2021/09/20 10:00:45;;;;;;;4.00;2.33;;;;;;;12.91;90.03;101545.63;5033804;28;20211;-70
2021/09/20 10:03:10;;;;;;;5.70;2.60;;;;;;;13.10;89.41;101548.25;5033709;28;20188;-70
2021/09/20 10:05:35;;;;;;;6.20;2.77;;;;;;;13.17;88.17;101546.09;5033479;28;20169;-70
2021/09/20 10:08:09;;;;;;;7.30;2.80;;;;;;;13.10;88.56;101541.06;5032353;28;20175;-70
2021/09/20 10:10:34;;;;;;;6.13;3.20;;;;;;;13.02;89.85;101545.97;5033356;28;20236;-70
2021/09/20 10:13:04;;;;;;;5.40;2.70;;;;;;;13.14;91.29;101572.13;5032300;28;20176;-70
2021/09/20 10:15:31;;;;;;;5.33;3.27;;;;;;;13.13;90.72;101558.81;5032358;28;20748;-70
2021/09/20 10:17:56;;;;;;;5.13;2.67;;;;;;;13.21;90.75;101570.03;5033189;28;20340;-70
2021/09/20 10:20:25;;;;;;;3.67;2.93;;;;;;;13.28;89.76;101555.34;5033434;28;20199;-71
2021/09/20 10:22:51;;;;;;;4.53;2.73;;;;;;;13.37;88.54;101543.25;5031647;28;20219;-71
2021/09/20 10:25:19;;;;;;;6.67;2.87;;;;;;;13.33;88.19;101531.84;5032893;28;20665;-70
2021/09/20 10:27:45;;;;;;;4.27;3.10;;;;;;;13.28;87.75;101523.19;5032042;28;20195;-71
2021/09/20 10:30:17;;;;;;;6.63;2.90;;;;;;;13.30;86.47;101507.88;5031836;28;20678;-70
2021/09/20 10:32:45;;;;;;;6.90;2.63;;;;;;;13.27;87.64;101532.16;5032503;28;20594;-71
2021/09/20 10:35:25;;;;;;;3.93;2.70;;;;;;;12.56;90.95;101542.06;5032024;28;20279;-71
2021/09/20 10:38:04;;;;;;;4.90;2.47;;;;;;;12.71;90.57;101546.66;5032363;28;20156;-71
2021/09/20 10:40:30;;;;;;;3.33;2.33;;;;;;;13.05;88.78;101534.22;5032284;28;20268;-71
2021/09/20 10:43:03;;;;;;;6.03;2.27;;;;;;;13.20;87.33;101520.03;5031853;28;20180;-71
2021/09/20 10:45:49;;;;;;;5.43;2.60;;;;;;;13.31;86.94;101520.31;5032406;28;20156;-71
2021/09/20 10:48:33;;;;;;;4.50;3.00;;;;;;;13.45;86.51;101519.59;5032846;28;20153;-71
2021/09/20 10:51:17;;;;;;;3.17;2.30;;;;;;;13.79;86.21;101528.50;5032754;28;20227;-71
2021/09/20 10:53:43;;;;;;;6.43;2.80;;;;;;;13.99;84.55;101504.09;5032540;28;20176;-72
2021/09/20 10:56:11;;;;;;;3.47;2.40;;;;;;;14.08;82.07;101471.34;5033149;28;20616;-71
2021/09/20 10:58:51;;;;;;;4.07;2.20;;;;;;;14.23;82.37;101478.53;5033158;28;20206;-71
2021/09/20 11:01:16;;;;;;;4.83;2.50;;;;;;;14.29;81.38;101471.94;5032872;28;20299;-71
2021/09/20 11:03:49;;;;;;;4.43;2.30;;;;;;;14.36;82.95;101494.78;5033187;28;20176;-71
2021/09/20 11:06:21;;;;;;;5.27;2.50;;;;;;;14.53;81.98;101478.59;5031660;28;20218;-71
2021/09/20 11:08:47;;;;;;;3.60;2.43;;;;;;;14.78;80.68;101471.75;5032709;28;20519;-70
2021/09/20 11:11:41;;;;;;;3.93;2.30;;;;;;;15.08;79.13;101447.50;5032867;28;20196;-71
2021/09/20 11:14:35;;;;;;;6.27;2.70;;;;;;;15.48;77.91;101437.81;5032855;28;20407;-71
2021/09/20 11:17:15;;;;;;;6.40;2.30;;;;;;;15.54;75.13;101378.22;5031913;28;20200;-71
2021/09/20 11:19:42;;;;;;;3.83;2.23;;;;;;;15.54;76.03;101403.28;5031772;28;20211;-70
2021/09/20 11:22:13;;;;;;;7.50;2.20;;;;;;;15.80;73.22;101366.66;5031421;28;20253;-71
2021/09/20 11:24:44;;;;;;;9.97;2.20;;;;;;;14.96;73.29;101338.94;5033310;28;20243;-71